createdAt,value
2017-10-31T00:00:10.795Z,99.90
2017-10-31T00:02:38.812Z,99.90
2017-10-31T00:05:07.775Z,99.90
2017-10-31T00:07:36.687Z,99.90
2017-10-31T00:10:06.452Z,99.90
2017-10-31T00:12:35.387Z,99.90
2017-10-31T00:15:04.167Z,99.90
2017-10-31T00:17:33.951Z,99.90
2017-10-31T00:20:03.963Z,99.90
2017-10-31T00:22:32.874Z,99.90
2017-10-31T00:25:05.547Z,99.90
2017-10-31T00:27:33.559Z,99.90
2017-10-31T00:30:01.574Z,99.90
2017-10-31T00:32:29.606Z,99.90
2017-10-31T00:34:57.614Z,99.90
2017-10-31T00:37:25.622Z,99.90
2017-10-31T00:39:53.650Z,99.90
2017-10-31T00:42:21.666Z,99.90
2017-10-31T00:44:49.683Z,99.90
2017-10-31T00:47:17.707Z,99.90
2017-10-31T00:49:45.719Z,99.90
2017-10-31T00:52:13.743Z,99.90
2017-10-31T00:54:41.774Z,99.90
2017-10-31T00:57:09.795Z,99.90
2017-10-31T00:59:37.807Z,99.90
2017-10-31T01:02:07.738Z,99.90
2017-10-31T01:04:37.574Z,99.90
2017-10-31T01:07:06.518Z,99.90
2017-10-31T01:09:35.514Z,99.90
2017-10-31T01:12:03.533Z,99.90
2017-10-31T01:14:31.546Z,99.90
2017-10-31T01:16:59.678Z,99.90
2017-10-31T01:19:28.410Z,99.90
2017-10-31T01:21:56.430Z,99.90
2017-10-31T01:24:24.474Z,99.90
2017-10-31T01:26:52.518Z,99.90
2017-10-31T01:29:20.534Z,99.90
2017-10-31T01:31:48.566Z,99.90
2017-10-31T01:34:16.590Z,99.90
2017-10-31T01:36:44.609Z,99.90
2017-10-31T01:39:12.630Z,99.90
2017-10-31T01:41:40.650Z,99.90
2017-10-31T01:44:09.631Z,99.90
2017-10-31T01:46:38.562Z,99.90
2017-10-31T01:49:06.586Z,99.90
2017-10-31T01:51:34.622Z,99.90
2017-10-31T01:54:02.661Z,99.90
2017-10-31T01:56:31.446Z,99.90
2017-10-31T01:59:01.218Z,99.90
2017-10-31T02:01:30.162Z,99.90
2017-10-31T02:03:58.182Z,99.90
2017-10-31T02:06:26.206Z,99.90
2017-10-31T02:08:54.339Z,99.90
2017-10-31T02:11:22.361Z,99.90
2017-10-31T02:13:51.402Z,99.90
2017-10-31T02:16:21.938Z,99.90
2017-10-31T02:18:50.910Z,99.90
2017-10-31T02:21:19.909Z,99.90
2017-10-31T02:23:47.953Z,99.90
2017-10-31T02:26:19.221Z,99.90
2017-10-31T02:28:47.254Z,99.90
2017-10-31T02:31:15.306Z,99.90
2017-10-31T02:33:44.209Z,99.90
2017-10-31T02:36:15.934Z,99.90
2017-10-31T02:52:15.025Z,99.90
2017-10-31T02:54:47.355Z,99.90
2017-10-31T02:57:15.382Z,99.90
2017-10-31T02:59:43.401Z,99.90
2017-10-31T03:02:13.406Z,99.90
2017-10-31T03:04:42.429Z,99.90
2017-10-31T03:07:12.113Z,99.90
2017-10-31T03:09:41.117Z,99.90
2017-10-31T03:12:09.154Z,99.90
2017-10-31T03:14:37.465Z,99.90
2017-10-31T03:17:06.453Z,99.90
2017-10-31T03:19:34.577Z,99.90
2017-10-31T03:22:02.601Z,99.90
2017-10-31T03:24:30.621Z,99.90
2017-10-31T03:26:58.893Z,99.90
2017-10-31T03:29:27.997Z,99.90
2017-10-31T03:31:56.017Z,99.90
2017-10-31T03:34:24.816Z,99.90
2017-10-31T03:36:53.617Z,99.90
2017-10-31T03:39:22.397Z,99.90
2017-10-31T03:41:51.209Z,99.90
2017-10-31T03:44:19.233Z,99.90
2017-10-31T03:46:48.213Z,99.90
2017-10-31T03:49:17.217Z,99.90
2017-10-31T03:51:46.137Z,99.90
2017-10-31T03:54:14.174Z,99.90
2017-10-31T03:56:42.204Z,99.90
2017-10-31T03:59:10.233Z,99.90
2017-10-31T04:01:40.013Z,99.90
2017-10-31T04:04:09.029Z,99.90
2017-10-31T04:06:37.829Z,99.90
2017-10-31T04:09:07.605Z,99.90
2017-10-31T04:11:36.537Z,99.90
2017-10-31T04:14:05.477Z,99.90
2017-10-31T04:16:34.473Z,99.90
2017-10-31T04:19:02.520Z,99.90
2017-10-31T04:21:30.549Z,99.90
2017-10-31T04:24:00.333Z,99.90
2017-10-31T04:26:28.373Z,99.90
2017-10-31T04:28:58.321Z,99.90
2017-10-31T04:31:26.341Z,99.90
2017-10-31T04:33:55.381Z,99.90
2017-10-31T04:36:23.413Z,99.90
2017-10-31T04:38:51.432Z,99.90
2017-10-31T04:41:20.417Z,99.90
2017-10-31T04:43:48.461Z,99.90
2017-10-31T04:46:16.477Z,99.90
2017-10-31T04:48:47.181Z,99.90
2017-10-31T04:51:15.209Z,99.90
2017-10-31T04:53:43.232Z,99.90
2017-10-31T04:56:11.277Z,99.90
2017-10-31T04:58:40.272Z,99.90
2017-10-31T05:01:10.328Z,99.90
2017-10-31T05:03:39.127Z,99.90
2017-10-31T05:06:07.165Z,99.90
2017-10-31T05:08:35.272Z,99.90
2017-10-31T05:11:03.261Z,99.90
2017-10-31T05:13:31.292Z,99.90
2017-10-31T05:16:02.036Z,99.90
2017-10-31T05:18:32.844Z,99.90
2017-10-31T05:21:00.864Z,99.90
2017-10-31T05:23:29.917Z,99.90
2017-10-31T05:25:58.892Z,99.90
2017-10-31T05:28:26.925Z,99.90
2017-10-31T05:30:54.960Z,99.90
2017-10-31T05:33:23.756Z,99.90
2017-10-31T05:35:51.792Z,99.90
2017-10-31T05:38:19.832Z,99.90
2017-10-31T05:40:47.863Z,99.90
2017-10-31T05:43:16.658Z,99.90
2017-10-31T05:45:44.703Z,99.90
2017-10-31T05:48:14.516Z,99.90
2017-10-31T05:50:44.320Z,99.90
2017-10-31T05:53:12.344Z,99.90
2017-10-31T05:55:40.377Z,99.90
2017-10-31T05:58:10.079Z,99.90
2017-10-31T06:00:40.788Z,99.90
2017-10-31T06:03:08.805Z,99.90
2017-10-31T06:05:36.836Z,99.90
2017-10-31T06:08:04.868Z,99.90
2017-10-31T06:10:32.896Z,99.90
2017-10-31T06:13:02.696Z,99.90
2017-10-31T06:15:31.692Z,99.90
2017-10-31T06:18:13.836Z,99.90
2017-10-31T06:20:41.868Z,99.90
2017-10-31T06:23:17.200Z,99.90
2017-10-31T06:25:52.688Z,99.90
2017-10-31T06:28:26.292Z,99.90
2017-10-31T06:31:00.084Z,99.90
2017-10-31T06:33:30.076Z,99.90
2017-10-31T06:35:58.104Z,99.90
2017-10-31T06:38:26.888Z,99.90
2017-10-31T06:40:55.825Z,99.90
2017-10-31T06:43:25.507Z,99.90
2017-10-31T06:45:53.531Z,99.90
2017-10-31T06:48:22.351Z,99.90
2017-10-31T06:50:51.136Z,99.90
2017-10-31T06:53:20.140Z,99.90
2017-10-31T06:55:48.171Z,99.90
2017-10-31T06:58:17.200Z,99.90
2017-10-31T07:00:46.195Z,99.90
2017-10-31T07:03:15.208Z,99.90
2017-10-31T07:05:43.991Z,99.90
2017-10-31T07:08:12.013Z,99.90
2017-10-31T07:10:40.271Z,99.90
2017-10-31T07:13:09.152Z,99.90
2017-10-31T07:15:37.175Z,99.90
2017-10-31T07:18:05.227Z,99.90
2017-10-31T07:20:33.248Z,99.90
2017-10-31T07:23:03.951Z,99.90
2017-10-31T07:25:33.699Z,99.90
2017-10-31T07:28:02.476Z,99.90
2017-10-31T07:30:34.539Z,99.90
2017-10-31T07:33:03.311Z,99.90
2017-10-31T07:35:33.207Z,99.90
2017-10-31T07:38:01.239Z,99.90
2017-10-31T07:40:29.255Z,99.90
2017-10-31T07:42:57.279Z,99.90
2017-10-31T07:45:26.087Z,99.90
2017-10-31T07:47:54.104Z,99.90
2017-10-31T07:50:22.892Z,99.90
2017-10-31T07:52:51.695Z,99.90
2017-10-31T07:55:19.711Z,99.90
2017-10-31T07:57:48.619Z,99.90
2017-10-31T08:00:16.643Z,99.90
2017-10-31T08:02:44.663Z,99.90
2017-10-31T08:05:13.451Z,99.90
2017-10-31T08:07:42.252Z,99.90
2017-10-31T08:10:15.927Z,99.90
2017-10-31T08:12:48.452Z,99.90
2017-10-31T08:15:22.847Z,99.90
2017-10-31T08:17:54.951Z,99.90
2017-10-31T08:20:27.579Z,99.90
2017-10-31T08:22:59.519Z,99.90
2017-10-31T08:25:31.336Z,99.90
2017-10-31T08:28:03.903Z,99.90
2017-10-31T08:30:35.979Z,99.90
2017-10-31T08:33:13.087Z,99.90
2017-10-31T08:35:46.176Z,99.90
2017-10-31T08:38:19.346Z,99.90
2017-10-31T08:40:51.959Z,99.90
2017-10-31T08:43:24.443Z,99.90
2017-10-31T08:45:57.439Z,99.90
2017-10-31T08:48:30.451Z,99.90
2017-10-31T08:51:02.387Z,99.90
2017-10-31T08:53:37.587Z,99.90
2017-10-31T08:56:09.271Z,99.90
2017-10-31T08:58:41.083Z,99.90
2017-10-31T09:01:10.018Z,99.90
2017-10-31T09:03:39.070Z,99.90
2017-10-31T09:06:10.834Z,99.90
2017-10-31T09:08:44.322Z,99.90
2017-10-31T09:11:13.984Z,99.90
2017-10-31T09:13:41.986Z,99.90
2017-10-31T09:16:10.007Z,99.90
2017-10-31T09:18:38.035Z,99.90
2017-10-31T09:21:07.730Z,99.90
2017-10-31T09:23:35.758Z,99.90
2017-10-31T09:26:09.478Z,99.90
2017-10-31T09:28:39.390Z,99.90
2017-10-31T09:31:09.217Z,99.90
2017-10-31T09:33:38.006Z,99.90
2017-10-31T09:36:09.742Z,99.90
2017-10-31T09:38:38.535Z,99.90
2017-10-31T09:41:09.223Z,99.90
2017-10-31T09:43:37.258Z,99.90
2017-10-31T09:46:05.291Z,99.90
2017-10-31T09:48:33.331Z,99.90
2017-10-31T09:51:03.079Z,99.90
2017-10-31T09:53:31.122Z,99.90
2017-10-31T09:56:02.946Z,99.90
2017-10-31T09:58:31.894Z,99.90
2017-10-31T10:00:59.922Z,99.90
2017-10-31T10:03:27.953Z,99.90
2017-10-31T10:05:58.474Z,99.90
2017-10-31T10:08:27.458Z,99.90
2017-10-31T10:10:55.501Z,99.90
2017-10-31T10:13:23.531Z,98.70
2017-10-31T10:15:51.562Z,96.70
2017-10-31T10:18:19.609Z,96.60
2017-10-31T10:20:47.633Z,97.20
2017-10-31T10:23:16.426Z,99.90
2017-10-31T10:25:44.461Z,99.90
2017-10-31T10:28:17.758Z,99.90
2017-10-31T10:30:45.789Z,99.90
2017-10-31T10:33:13.834Z,99.90
2017-10-31T10:35:41.862Z,99.90
2017-10-31T10:38:11.890Z,99.90
2017-10-31T10:40:41.685Z,99.90
2017-10-31T10:43:10.685Z,99.90
2017-10-31T10:45:40.465Z,99.90
2017-10-31T10:48:08.493Z,99.90
2017-10-31T10:50:39.097Z,99.90
2017-10-31T10:53:08.080Z,99.90
2017-10-31T10:55:39.225Z,99.90
2017-10-31T10:58:07.241Z,99.90
2017-10-31T11:00:43.485Z,99.90
2017-10-31T11:03:13.101Z,99.90
2017-10-31T11:05:41.897Z,99.90
2017-10-31T11:08:09.934Z,99.90
2017-10-31T11:10:42.402Z,99.90
2017-10-31T11:13:11.417Z,99.90
2017-10-31T11:15:42.134Z,99.90
2017-10-31T11:18:10.950Z,99.90
2017-10-31T11:20:38.989Z,99.90
2017-10-31T11:23:07.021Z,99.90
2017-10-31T11:25:35.074Z,99.90
2017-10-31T11:28:03.100Z,99.90
2017-10-31T11:30:31.113Z,99.90
2017-10-31T11:32:59.841Z,99.90
2017-10-31T11:35:28.833Z,99.90
2017-10-31T11:37:56.860Z,99.90
2017-10-31T11:40:24.929Z,99.90
2017-10-31T11:42:52.953Z,99.90
2017-10-31T11:45:20.977Z,99.90
2017-10-31T11:47:49.017Z,99.90
2017-10-31T11:50:19.729Z,99.90
2017-10-31T11:52:49.753Z,99.90
2017-10-31T11:55:19.549Z,99.90
2017-10-31T11:57:59.501Z,99.90
2017-10-31T12:00:31.870Z,99.90
2017-10-31T12:02:59.905Z,99.90
2017-10-31T12:05:28.042Z,99.90
2017-10-31T12:08:01.514Z,99.90
2017-10-31T12:10:32.965Z,99.90
2017-10-31T12:13:01.025Z,99.90
2017-10-31T12:15:29.081Z,99.90
2017-10-31T12:17:57.113Z,99.90
2017-10-31T12:20:26.081Z,99.90
2017-10-31T12:22:54.893Z,99.90
2017-10-31T12:25:24.580Z,99.90
2017-10-31T12:27:53.389Z,99.90
2017-10-31T12:30:21.421Z,99.90
2017-10-31T12:32:50.409Z,99.90
2017-10-31T12:35:18.444Z,99.90
2017-10-31T12:37:47.365Z,99.90
2017-10-31T12:40:16.353Z,99.90
2017-10-31T12:42:45.357Z,99.90
2017-10-31T12:45:16.104Z,99.90
2017-10-31T12:47:45.093Z,99.90
2017-10-31T12:50:14.897Z,99.90
2017-10-31T12:52:42.928Z,99.90
2017-10-31T12:55:16.520Z,99.90
2017-10-31T12:57:44.537Z,99.90
2017-10-31T13:00:15.132Z,99.90
2017-10-31T13:02:43.169Z,99.90
2017-10-31T13:05:11.201Z,99.90
2017-10-31T13:07:40.265Z,99.90
2017-10-31T13:10:08.292Z,99.90
2017-10-31T13:12:38.088Z,99.90
2017-10-31T13:15:13.000Z,99.90
2017-10-31T13:17:42.016Z,99.90
2017-10-31T13:20:10.812Z,99.90
2017-10-31T13:22:41.529Z,99.90
2017-10-31T13:25:09.549Z,99.90
2017-10-31T13:27:38.862Z,99.90
2017-10-31T13:30:07.192Z,99.90
2017-10-31T13:32:36.264Z,99.90
2017-10-31T13:35:11.064Z,99.90
2017-10-31T13:37:44.028Z,99.90
2017-10-31T13:40:13.364Z,99.90
2017-10-31T13:42:42.684Z,99.90
2017-10-31T13:45:17.816Z,99.90
2017-10-31T13:47:47.076Z,99.90
2017-10-31T13:50:15.480Z,99.90
2017-10-31T13:52:43.512Z,99.90
2017-10-31T13:55:11.536Z,99.90
2017-10-31T13:57:39.561Z,99.90
2017-10-31T14:00:07.871Z,99.90
2017-10-31T14:02:37.128Z,99.90
2017-10-31T14:05:07.373Z,99.90
2017-10-31T14:07:36.613Z,99.90
2017-10-31T14:10:05.653Z,99.90
2017-10-31T14:12:34.028Z,99.90
2017-10-31T14:15:02.840Z,96.80
2017-10-31T14:17:37.132Z,96.60
2017-10-31T14:20:09.424Z,95.50
2017-10-31T14:22:37.463Z,99.30
2017-10-31T14:25:05.477Z,99.90
2017-10-31T14:27:43.254Z,99.90
2017-10-31T14:30:13.291Z,99.90
2017-10-31T14:32:41.317Z,99.90
2017-10-31T14:35:11.276Z,99.90
2017-10-31T14:37:40.260Z,99.90
2017-10-31T14:40:11.924Z,99.90
2017-10-31T14:42:39.952Z,99.90
2017-10-31T14:45:14.408Z,99.90
2017-10-31T14:47:44.216Z,99.90
2017-10-31T14:50:12.235Z,99.90
2017-10-31T14:52:41.184Z,99.90
2017-10-31T14:55:09.204Z,99.90
2017-10-31T14:57:37.216Z,99.90
2017-10-31T15:00:05.253Z,99.90
2017-10-31T15:02:34.172Z,99.90
2017-10-31T15:05:02.189Z,99.90
2017-10-31T15:07:30.980Z,99.90
2017-10-31T15:09:58.996Z,99.90
2017-10-31T15:12:27.013Z,99.90
2017-10-31T15:14:55.044Z,99.90
2017-10-31T15:17:23.059Z,99.90
2017-10-31T15:19:53.024Z,99.90
2017-10-31T15:22:21.243Z,99.90
2017-10-31T15:24:50.188Z,99.90
2017-10-31T15:27:18.208Z,99.90
2017-10-31T15:29:46.248Z,99.90
2017-10-31T15:32:15.219Z,99.90
2017-10-31T15:34:43.239Z,99.90
2017-10-31T15:37:11.271Z,99.90
2017-10-31T15:39:44.292Z,99.90
2017-10-31T15:42:13.256Z,99.90
2017-10-31T15:44:41.271Z,99.90
2017-10-31T15:47:09.288Z,99.90
2017-10-31T15:49:37.316Z,99.90
2017-10-31T15:52:05.367Z,99.90
2017-10-31T15:54:34.128Z,99.90
2017-10-31T15:57:03.108Z,99.90
2017-10-31T15:59:32.105Z,99.90
2017-10-31T16:02:00.099Z,99.90
2017-10-31T16:04:28.767Z,99.90
2017-10-31T16:06:59.476Z,99.90
2017-10-31T16:09:31.851Z,99.90
2017-10-31T16:11:59.871Z,99.90
2017-10-31T16:14:31.479Z,99.90
2017-10-31T16:17:00.448Z,99.90
2017-10-31T16:19:33.247Z,99.90
2017-10-31T16:22:05.299Z,99.90
2017-10-31T16:24:35.327Z,99.90
2017-10-31T16:27:05.331Z,99.90
2017-10-31T16:29:35.379Z,99.90
2017-10-31T16:32:05.159Z,99.90
2017-10-31T16:34:40.487Z,99.90
2017-10-31T16:37:08.503Z,99.90
2017-10-31T16:39:38.279Z,99.90
2017-10-31T16:42:07.222Z,99.90
2017-10-31T16:44:41.751Z,99.90
2017-10-31T16:47:09.779Z,99.90
2017-10-31T16:49:37.803Z,99.90
2017-10-31T16:52:09.343Z,99.90
2017-10-31T16:54:38.275Z,99.90
2017-10-31T16:57:11.538Z,99.90
2017-10-31T16:59:41.477Z,99.90
2017-10-31T17:02:09.552Z,99.90
2017-10-31T17:04:37.527Z,99.90
2017-10-31T17:07:06.590Z,99.90
2017-10-31T17:09:35.611Z,99.90
2017-10-31T17:12:04.635Z,99.90
2017-10-31T17:14:37.687Z,99.90
2017-10-31T17:17:06.689Z,99.90
2017-10-31T17:19:35.670Z,99.90
2017-10-31T17:22:04.669Z,99.90
2017-10-31T17:24:32.707Z,99.90
2017-10-31T17:27:00.711Z,99.90
2017-10-31T17:29:29.691Z,99.90
2017-10-31T17:31:57.724Z,99.90
2017-10-31T17:34:25.734Z,99.90
2017-10-31T17:36:53.747Z,99.90
2017-10-31T17:39:23.526Z,99.90
2017-10-31T17:41:52.511Z,99.90
2017-10-31T17:44:21.414Z,99.90
2017-10-31T17:46:50.390Z,99.90
2017-10-31T17:49:18.446Z,99.90
2017-10-31T17:51:47.451Z,99.90
2017-10-31T17:54:15.467Z,99.90
2017-10-31T17:56:44.247Z,99.90
2017-10-31T17:59:13.034Z,99.90
2017-10-31T18:01:41.834Z,99.90
2017-10-31T18:04:10.606Z,99.90
2017-10-31T18:06:49.266Z,99.90
2017-10-31T18:09:19.175Z,99.90
2017-10-31T18:11:47.182Z,99.90
2017-10-31T18:14:15.214Z,99.90
2017-10-31T18:16:43.231Z,99.90
2017-10-31T18:19:11.253Z,99.90
2017-10-31T18:21:39.354Z,99.90
2017-10-31T18:24:07.382Z,99.90
2017-10-31T18:26:35.402Z,99.90
2017-10-31T18:29:03.448Z,99.90
2017-10-31T18:31:31.474Z,99.90
2017-10-31T18:34:01.262Z,99.90
2017-10-31T18:36:29.270Z,99.90
2017-10-31T18:38:58.216Z,99.90
2017-10-31T18:41:29.574Z,99.90
2017-10-31T18:43:58.543Z,99.90
2017-10-31T18:46:26.558Z,99.90
2017-10-31T18:48:54.606Z,99.90
2017-10-31T18:51:22.618Z,99.90
2017-10-31T18:53:50.639Z,99.90
2017-10-31T18:56:21.433Z,99.90
2017-10-31T18:58:50.353Z,99.90
2017-10-31T19:01:18.378Z,99.90
2017-10-31T19:03:46.418Z,99.90
2017-10-31T19:06:15.226Z,99.90
2017-10-31T19:08:43.258Z,99.90
2017-10-31T19:11:12.258Z,99.90
2017-10-31T19:13:41.241Z,99.90
2017-10-31T19:16:09.258Z,99.90
2017-10-31T19:18:38.232Z,99.90
2017-10-31T19:21:11.023Z,99.90
2017-10-31T19:23:46.709Z,99.90
2017-10-31T19:26:15.722Z,99.90
2017-10-31T19:28:45.022Z,99.90
2017-10-31T19:31:13.053Z,99.90
2017-10-31T19:33:41.061Z,99.90
2017-10-31T19:36:13.130Z,99.90
2017-10-31T19:38:43.138Z,99.90
2017-10-31T19:41:13.166Z,99.90
2017-10-31T19:43:41.191Z,99.90
2017-10-31T19:46:11.138Z,99.90
2017-10-31T19:48:40.138Z,99.90
2017-10-31T19:51:08.155Z,99.90
2017-10-31T19:53:40.702Z,99.90
2017-10-31T19:56:09.673Z,99.90
2017-10-31T19:58:39.586Z,99.90
2017-10-31T20:01:07.649Z,99.90
2017-10-31T20:03:35.675Z,99.90
2017-10-31T20:06:05.434Z,99.90
2017-10-31T20:08:38.137Z,99.90
2017-10-31T20:11:06.930Z,99.90
2017-10-31T20:13:35.730Z,99.90
2017-10-31T20:16:04.554Z,99.90
2017-10-31T20:18:32.597Z,99.90
2017-10-31T20:21:01.559Z,99.90
2017-10-31T20:23:29.586Z,99.90
2017-10-31T20:26:06.173Z,99.90
2017-10-31T20:28:35.189Z,99.90
2017-10-31T20:31:04.013Z,99.90
2017-10-31T20:33:34.290Z,99.90
2017-10-31T20:36:03.417Z,99.90
2017-10-31T20:38:33.201Z,99.90
2017-10-31T20:41:01.230Z,99.90
2017-10-31T20:43:31.186Z,99.90
2017-10-31T20:46:03.781Z,99.90
2017-10-31T20:48:33.569Z,99.90
2017-10-31T20:51:02.161Z,99.90
2017-10-31T20:53:30.191Z,99.90
2017-10-31T20:55:58.257Z,99.90
2017-10-31T20:58:26.253Z,99.90
2017-10-31T21:00:57.413Z,99.90
2017-10-31T21:03:27.441Z,99.90
2017-10-31T21:05:56.234Z,99.90
2017-10-31T21:08:28.073Z,99.90
2017-10-31T21:10:56.089Z,99.90
2017-10-31T21:13:24.117Z,99.90
2017-10-31T21:15:53.108Z,99.90
2017-10-31T21:18:21.117Z,99.90
2017-10-31T21:20:50.045Z,99.90
2017-10-31T21:23:18.105Z,99.90
2017-10-31T21:25:47.054Z,99.90
2017-10-31T21:28:15.101Z,99.90
2017-10-31T21:30:43.145Z,99.90
2017-10-31T21:33:11.164Z,99.90
2017-10-31T21:35:39.219Z,99.90
2017-10-31T21:38:09.965Z,99.90
2017-10-31T21:40:40.656Z,99.90
2017-10-31T21:43:09.676Z,99.90
2017-10-31T21:45:40.385Z,99.90
2017-10-31T21:48:08.409Z,99.90
2017-10-31T21:50:38.404Z,99.90
2017-10-31T21:53:07.212Z,99.90
2017-10-31T21:55:35.240Z,99.90
2017-10-31T21:58:03.304Z,99.90
2017-10-31T22:00:32.298Z,99.90
2017-10-31T22:03:04.789Z,99.90
2017-10-31T22:05:32.808Z,99.90
2017-10-31T22:08:02.768Z,99.90
2017-10-31T22:10:30.785Z,99.90
2017-10-31T22:12:58.816Z,99.90
2017-10-31T22:15:27.621Z,99.90
2017-10-31T22:17:56.413Z,99.90
2017-10-31T22:20:24.444Z,99.90
2017-10-31T22:22:52.461Z,99.90
2017-10-31T22:25:20.500Z,99.90
2017-10-31T22:27:49.292Z,99.90
2017-10-31T22:30:18.081Z,99.90
2017-10-31T22:32:46.900Z,99.90
2017-10-31T22:35:14.948Z,99.90
2017-10-31T22:37:43.732Z,99.90
2017-10-31T22:40:16.084Z,99.90
2017-10-31T22:42:44.108Z,99.90
2017-10-31T22:45:13.132Z,99.90
2017-10-31T22:47:42.147Z,99.90
2017-10-31T22:50:12.865Z,99.90
2017-10-31T22:52:41.883Z,99.90
2017-10-31T22:55:12.585Z,99.90
2017-10-31T22:57:40.623Z,99.90
2017-10-31T23:00:09.656Z,99.90
2017-10-31T23:02:39.700Z,99.90
2017-10-31T23:05:09.492Z,99.90
2017-10-31T23:07:38.275Z,99.90
2017-10-31T23:10:08.288Z,99.90
2017-10-31T23:12:37.292Z,99.90
2017-10-31T23:15:07.104Z,99.90
2017-10-31T23:17:37.824Z,99.90
2017-10-31T23:20:06.388Z,99.90
2017-10-31T23:22:34.443Z,99.90
2017-10-31T23:25:07.192Z,99.90
2017-10-31T23:27:35.211Z,99.90
2017-10-31T23:30:03.244Z,99.90
2017-10-31T23:32:31.272Z,99.90
2017-10-31T23:34:59.292Z,99.90
2017-10-31T23:37:28.944Z,99.90
2017-10-31T23:39:57.928Z,99.90
2017-10-31T23:42:29.068Z,99.90
2017-10-31T23:44:58.096Z,99.90
2017-10-31T23:47:26.144Z,99.90
2017-10-31T23:49:54.164Z,99.90
2017-10-31T23:52:23.207Z,99.90
2017-10-31T23:54:52.192Z,99.90
2017-10-31T23:57:20.199Z,99.90
2017-10-31T23:59:48.228Z,99.90
